Terminal Aerodrome Forecast
Issued by NWS

Home | Current Version | Previous Version | Text Only | Print | Product List | Glossary On
Versions: 1 2 3 4 5 6 7 8 9 10 11 12 13 14 15 16 17 18 19 20
000
FTUS44 KTSA 221100
TAFFYV
TAF
KFYV 221120Z 2212/2312 00000KT P6SM FEW250
      TEMPO 2212/2213 2SM BR
     FM221500 19006KT P6SM SCT040
     FM230000 18003KT P6SM SKC=

USA.gov is the U.S. government's official web portal to all federal, state and local government web resources and services.